sensor_id;sensor_type;location;lat;lon;timestamp;P1;durP1;ratioP1;P2;durP2;ratioP2
35745;SDS011;21870;42.812;74.628;2023-04-24T00:00:56;2.15;;;1.73;;
35745;SDS011;21870;42.812;74.628;2023-04-24T00:03:23;3.83;;;2.15;;
35745;SDS011;21870;42.812;74.628;2023-04-24T00:05:49;2.30;;;2.10;;
35745;SDS011;21870;42.812;74.628;2023-04-24T00:08:17;7.75;;;2.58;;
35745;SDS011;21870;42.812;74.628;2023-04-24T00:10:43;6.03;;;2.40;;
35745;SDS011;21870;42.812;74.628;2023-04-24T00:13:10;3.95;;;2.00;;
35745;SDS011;21870;42.812;74.628;2023-04-24T00:15:36;4.57;;;2.13;;
35745;SDS011;21870;42.812;74.628;2023-04-24T00:18:02;4.07;;;2.17;;
35745;SDS011;21870;42.812;74.628;2023-04-24T00:20:28;2.45;;;2.08;;
35745;SDS011;21870;42.812;74.628;2023-04-24T00:23:03;3.13;;;2.33;;
35745;SDS011;21870;42.812;74.628;2023-04-24T00:25:29;6.53;;;2.00;;
35745;SDS011;21870;42.812;74.628;2023-04-24T00:27:56;4.10;;;2.10;;
35745;SDS011;21870;42.812;74.628;2023-04-24T00:30:22;3.70;;;2.17;;
35745;SDS011;21870;42.812;74.628;2023-04-24T00:32:48;3.45;;;2.33;;
35745;SDS011;21870;42.812;74.628;2023-04-24T00:35:14;6.63;;;4.40;;
35745;SDS011;21870;42.812;74.628;2023-04-24T00:37:40;20.13;;;18.17;;
35745;SDS011;21870;42.812;74.628;2023-04-24T00:40:07;7.57;;;5.30;;
35745;SDS011;21870;42.812;74.628;2023-04-24T00:42:33;5.65;;;2.28;;
35745;SDS011;21870;42.812;74.628;2023-04-24T00:45:00;3.42;;;2.47;;
35745;SDS011;21870;42.812;74.628;2023-04-24T00:47:28;2.78;;;2.10;;
35745;SDS011;21870;42.812;74.628;2023-04-24T00:49:55;3.13;;;2.42;;
35745;SDS011;21870;42.812;74.628;2023-04-24T00:52:21;4.93;;;2.50;;
35745;SDS011;21870;42.812;74.628;2023-04-24T00:54:49;3.38;;;2.30;;
35745;SDS011;21870;42.812;74.628;2023-04-24T00:57:15;3.80;;;2.28;;
35745;SDS011;21870;42.812;74.628;2023-04-24T00:59:42;7.85;;;2.58;;
35745;SDS011;21870;42.812;74.628;2023-04-24T01:02:09;5.30;;;2.40;;
35745;SDS011;21870;42.812;74.628;2023-04-24T01:04:36;5.15;;;2.20;;
35745;SDS011;21870;42.812;74.628;2023-04-24T01:07:03;4.70;;;2.40;;
35745;SDS011;21870;42.812;74.628;2023-04-24T01:09:35;4.78;;;2.20;;
35745;SDS011;21870;42.812;74.628;2023-04-24T01:12:08;3.97;;;2.08;;
35745;SDS011;21870;42.812;74.628;2023-04-24T01:14:34;5.63;;;1.98;;
35745;SDS011;21870;42.812;74.628;2023-04-24T01:17:01;4.07;;;1.85;;
35745;SDS011;21870;42.812;74.628;2023-04-24T01:19:27;2.55;;;1.90;;
35745;SDS011;21870;42.812;74.628;2023-04-24T01:21:53;4.88;;;2.50;;
35745;SDS011;21870;42.812;74.628;2023-04-24T01:24:23;5.25;;;2.20;;
35745;SDS011;21870;42.812;74.628;2023-04-24T01:26:49;4.00;;;1.80;;
35745;SDS011;21870;42.812;74.628;2023-04-24T01:29:15;4.95;;;2.10;;
35745;SDS011;21870;42.812;74.628;2023-04-24T01:31:41;5.43;;;2.22;;
35745;SDS011;21870;42.812;74.628;2023-04-24T01:34:08;7.38;;;2.30;;
35745;SDS011;21870;42.812;74.628;2023-04-24T01:36:34;4.43;;;1.90;;
35745;SDS011;21870;42.812;74.628;2023-04-24T01:39:01;7.88;;;2.45;;
35745;SDS011;21870;42.812;74.628;2023-04-24T01:41:28;3.03;;;2.05;;
35745;SDS011;21870;42.812;74.628;2023-04-24T01:43:55;4.38;;;2.03;;
35745;SDS011;21870;42.812;74.628;2023-04-24T01:46:23;2.25;;;1.70;;
35745;SDS011;21870;42.812;74.628;2023-04-24T01:48:50;5.93;;;2.47;;
35745;SDS011;21870;42.812;74.628;2023-04-24T01:51:17;12.88;;;2.90;;
35745;SDS011;21870;42.812;74.628;2023-04-24T01:53:43;10.63;;;4.55;;
35745;SDS011;21870;42.812;74.628;2023-04-24T01:56:10;25.05;;;14.45;;
35745;SDS011;21870;42.812;74.628;2023-04-24T01:58:36;15.55;;;7.82;;
35745;SDS011;21870;42.812;74.628;2023-04-24T02:01:02;13.95;;;6.47;;
35745;SDS011;21870;42.812;74.628;2023-04-24T02:03:28;23.83;;;6.38;;
35745;SDS011;21870;42.812;74.628;2023-04-24T02:05:54;24.38;;;4.97;;
35745;SDS011;21870;42.812;74.628;2023-04-24T02:08:23;16.92;;;4.40;;
35745;SDS011;21870;42.812;74.628;2023-04-24T02:10:50;27.65;;;5.13;;
35745;SDS011;21870;42.812;74.628;2023-04-24T02:13:16;25.38;;;4.53;;
35745;SDS011;21870;42.812;74.628;2023-04-24T02:15:42;39.45;;;5.90;;
35745;SDS011;21870;42.812;74.628;2023-04-24T02:18:08;75.07;;;9.80;;
35745;SDS011;21870;42.812;74.628;2023-04-24T02:20:35;62.72;;;16.80;;
35745;SDS011;21870;42.812;74.628;2023-04-24T02:23:01;32.63;;;5.25;;
35745;SDS011;21870;42.812;74.628;2023-04-24T02:25:28;37.70;;;5.57;;
35745;SDS011;21870;42.812;74.628;2023-04-24T02:27:54;45.10;;;6.53;;
35745;SDS011;21870;42.812;74.628;2023-04-24T02:30:20;57.50;;;8.70;;
35745;SDS011;21870;42.812;74.628;2023-04-24T02:32:46;35.97;;;8.52;;
35745;SDS011;21870;42.812;74.628;2023-04-24T02:35:12;47.88;;;7.65;;
35745;SDS011;21870;42.812;74.628;2023-04-24T02:37:38;33.15;;;5.95;;
35745;SDS011;21870;42.812;74.628;2023-04-24T02:40:04;11.85;;;4.28;;
35745;SDS011;21870;42.812;74.628;2023-04-24T02:42:31;8.73;;;3.42;;
35745;SDS011;21870;42.812;74.628;2023-04-24T02:44:57;8.38;;;2.95;;
35745;SDS011;21870;42.812;74.628;2023-04-24T02:47:23;9.63;;;3.08;;
35745;SDS011;21870;42.812;74.628;2023-04-24T02:49:49;11.32;;;3.53;;
35745;SDS011;21870;42.812;74.628;2023-04-24T02:52:15;11.85;;;3.45;;
35745;SDS011;21870;42.812;74.628;2023-04-24T02:54:42;8.68;;;2.58;;
35745;SDS011;21870;42.812;74.628;2023-04-24T02:57:08;12.82;;;2.97;;
35745;SDS011;21870;42.812;74.628;2023-04-24T02:59:34;9.50;;;3.40;;
35745;SDS011;21870;42.812;74.628;2023-04-24T03:02:00;11.95;;;3.05;;
35745;SDS011;21870;42.812;74.628;2023-04-24T03:04:26;13.43;;;3.08;;
35745;SDS011;21870;42.812;74.628;2023-04-24T03:06:55;14.55;;;3.00;;
35745;SDS011;21870;42.812;74.628;2023-04-24T03:09:22;11.00;;;3.00;;
35745;SDS011;21870;42.812;74.628;2023-04-24T03:11:48;13.80;;;3.45;;
35745;SDS011;21870;42.812;74.628;2023-04-24T03:14:14;15.38;;;3.55;;
35745;SDS011;21870;42.812;74.628;2023-04-24T03:16:41;11.60;;;3.25;;
35745;SDS011;21870;42.812;74.628;2023-04-24T03:19:07;14.45;;;3.22;;
35745;SDS011;21870;42.812;74.628;2023-04-24T03:21:33;8.35;;;2.95;;
35745;SDS011;21870;42.812;74.628;2023-04-24T03:24:00;12.45;;;3.42;;
35745;SDS011;21870;42.812;74.628;2023-04-24T03:26:27;10.75;;;2.90;;
35745;SDS011;21870;42.812;74.628;2023-04-24T03:28:53;11.57;;;2.90;;
35745;SDS011;21870;42.812;74.628;2023-04-24T03:31:19;9.32;;;2.72;;
35745;SDS011;21870;42.812;74.628;2023-04-24T03:33:46;12.65;;;3.63;;
35745;SDS011;21870;42.812;74.628;2023-04-24T03:36:12;6.22;;;3.45;;
35745;SDS011;21870;42.812;74.628;2023-04-24T03:38:38;10.07;;;3.15;;
35745;SDS011;21870;42.812;74.628;2023-04-24T03:41:04;8.73;;;3.53;;
35745;SDS011;21870;42.812;74.628;2023-04-24T03:43:30;10.68;;;3.15;;
35745;SDS011;21870;42.812;74.628;2023-04-24T03:45:58;12.23;;;2.90;;
35745;SDS011;21870;42.812;74.628;2023-04-24T03:48:24;8.35;;;3.10;;
35745;SDS011;21870;42.812;74.628;2023-04-24T03:50:50;12.05;;;3.55;;
35745;SDS011;21870;42.812;74.628;2023-04-24T03:53:17;8.85;;;3.45;;
35745;SDS011;21870;42.812;74.628;2023-04-24T03:55:43;12.40;;;3.58;;
35745;SDS011;21870;42.812;74.628;2023-04-24T03:58:09;4.88;;;2.72;;
35745;SDS011;21870;42.812;74.628;2023-04-24T04:00:36;6.53;;;3.03;;
35745;SDS011;21870;42.812;74.628;2023-04-24T04:03:03;4.70;;;2.53;;
35745;SDS011;21870;42.812;74.628;2023-04-24T04:05:29;9.38;;;2.78;;
35745;SDS011;21870;42.812;74.628;2023-04-24T04:07:55;8.10;;;2.67;;
35745;SDS011;21870;42.812;74.628;2023-04-24T04:10:21;8.18;;;2.63;;
35745;SDS011;21870;42.812;74.628;2023-04-24T04:12:47;9.32;;;2.90;;
35745;SDS011;21870;42.812;74.628;2023-04-24T04:15:13;7.82;;;3.45;;
35745;SDS011;21870;42.812;74.628;2023-04-24T04:17:39;4.80;;;2.67;;
35745;SDS011;21870;42.812;74.628;2023-04-24T04:20:05;6.50;;;3.38;;
35745;SDS011;21870;42.812;74.628;2023-04-24T04:22:35;6.03;;;2.47;;
35745;SDS011;21870;42.812;74.628;2023-04-24T04:25:02;10.85;;;3.47;;
35745;SDS011;21870;42.812;74.628;2023-04-24T04:27:29;9.40;;;2.97;;
35745;SDS011;21870;42.812;74.628;2023-04-24T04:30:00;8.30;;;2.15;;
35745;SDS011;21870;42.812;74.628;2023-04-24T04:32:33;4.55;;;1.80;;
35745;SDS011;21870;42.812;74.628;2023-04-24T04:35:00;4.80;;;2.55;;
35745;SDS011;21870;42.812;74.628;2023-04-24T04:37:28;5.95;;;2.35;;
35745;SDS011;21870;42.812;74.628;2023-04-24T04:39:56;2.53;;;1.90;;
35745;SDS011;21870;42.812;74.628;2023-04-24T04:42:26;3.72;;;2.20;;
35745;SDS011;21870;42.812;74.628;2023-04-24T04:44:55;6.93;;;2.63;;
35745;SDS011;21870;42.812;74.628;2023-04-24T04:47:22;7.35;;;2.30;;
35745;SDS011;21870;42.812;74.628;2023-04-24T04:49:49;9.82;;;2.97;;
35745;SDS011;21870;42.812;74.628;2023-04-24T04:52:16;14.30;;;3.30;;
35745;SDS011;21870;42.812;74.628;2023-04-24T04:54:43;11.23;;;2.70;;
35745;SDS011;21870;42.812;74.628;2023-04-24T04:57:10;8.73;;;2.63;;
35745;SDS011;21870;42.812;74.628;2023-04-24T04:59:37;5.35;;;2.30;;
35745;SDS011;21870;42.812;74.628;2023-04-24T05:02:03;3.65;;;1.88;;
35745;SDS011;21870;42.812;74.628;2023-04-24T05:04:29;6.35;;;1.92;;
35745;SDS011;21870;42.812;74.628;2023-04-24T05:06:55;5.07;;;1.85;;
35745;SDS011;21870;42.812;74.628;2023-04-24T05:09:21;5.90;;;1.90;;
35745;SDS011;21870;42.812;74.628;2023-04-24T05:11:47;4.88;;;2.17;;
35745;SDS011;21870;42.812;74.628;2023-04-24T05:14:13;7.35;;;2.08;;
35745;SDS011;21870;42.812;74.628;2023-04-24T05:16:39;7.30;;;2.00;;
35745;SDS011;21870;42.812;74.628;2023-04-24T05:19:06;9.52;;;2.60;;
35745;SDS011;21870;42.812;74.628;2023-04-24T05:21:32;5.88;;;2.20;;
35745;SDS011;21870;42.812;74.628;2023-04-24T05:23:58;3.88;;;1.85;;
35745;SDS011;21870;42.812;74.628;2023-04-24T05:26:24;7.00;;;2.13;;
35745;SDS011;21870;42.812;74.628;2023-04-24T05:28:50;5.38;;;1.80;;
35745;SDS011;21870;42.812;74.628;2023-04-24T05:31:16;5.47;;;1.85;;
35745;SDS011;21870;42.812;74.628;2023-04-24T05:33:42;4.75;;;2.10;;
35745;SDS011;21870;42.812;74.628;2023-04-24T05:36:09;3.30;;;2.50;;
35745;SDS011;21870;42.812;74.628;2023-04-24T05:38:35;6.70;;;2.47;;
35745;SDS011;21870;42.812;74.628;2023-04-24T05:41:01;7.93;;;2.83;;
35745;SDS011;21870;42.812;74.628;2023-04-24T05:43:27;4.72;;;1.98;;
35745;SDS011;21870;42.812;74.628;2023-04-24T05:45:53;4.18;;;1.80;;
35745;SDS011;21870;42.812;74.628;2023-04-24T05:48:20;8.63;;;2.25;;
35745;SDS011;21870;42.812;74.628;2023-04-24T05:50:48;7.00;;;2.22;;
35745;SDS011;21870;42.812;74.628;2023-04-24T05:53:14;13.85;;;2.10;;
35745;SDS011;21870;42.812;74.628;2023-04-24T05:55:40;10.50;;;2.47;;
35745;SDS011;21870;42.812;74.628;2023-04-24T05:58:06;15.10;;;2.33;;
35745;SDS011;21870;42.812;74.628;2023-04-24T06:00:32;8.43;;;2.17;;
35745;SDS011;21870;42.812;74.628;2023-04-24T06:02:59;18.88;;;3.72;;
35745;SDS011;21870;42.812;74.628;2023-04-24T06:05:25;12.75;;;3.17;;
35745;SDS011;21870;42.812;74.628;2023-04-24T06:07:51;14.45;;;2.50;;
35745;SDS011;21870;42.812;74.628;2023-04-24T06:10:18;9.48;;;2.70;;
35745;SDS011;21870;42.812;74.628;2023-04-24T06:12:44;13.50;;;4.65;;
35745;SDS011;21870;42.812;74.628;2023-04-24T06:15:10;19.65;;;3.78;;
35745;SDS011;21870;42.812;74.628;2023-04-24T06:17:36;13.70;;;5.00;;
35745;SDS011;21870;42.812;74.628;2023-04-24T06:20:03;19.70;;;4.90;;
35745;SDS011;21870;42.812;74.628;2023-04-24T06:22:31;24.75;;;5.70;;
35745;SDS011;21870;42.812;74.628;2023-04-24T06:24:57;27.83;;;5.90;;
35745;SDS011;21870;42.812;74.628;2023-04-24T06:27:23;23.25;;;6.68;;
35745;SDS011;21870;42.812;74.628;2023-04-24T06:29:49;38.67;;;8.55;;
35745;SDS011;21870;42.812;74.628;2023-04-24T06:32:20;25.77;;;7.85;;
35745;SDS011;21870;42.812;74.628;2023-04-24T06:34:47;22.90;;;6.80;;
35745;SDS011;21870;42.812;74.628;2023-04-24T06:37:14;18.02;;;5.65;;
35745;SDS011;21870;42.812;74.628;2023-04-24T06:39:41;27.67;;;6.90;;
35745;SDS011;21870;42.812;74.628;2023-04-24T06:42:07;18.67;;;5.70;;
35745;SDS011;21870;42.812;74.628;2023-04-24T06:44:35;20.65;;;5.75;;
35745;SDS011;21870;42.812;74.628;2023-04-24T06:47:08;30.42;;;6.80;;
35745;SDS011;21870;42.812;74.628;2023-04-24T06:49:36;27.75;;;6.80;;
35745;SDS011;21870;42.812;74.628;2023-04-24T06:52:02;17.80;;;5.57;;
35745;SDS011;21870;42.812;74.628;2023-04-24T06:54:29;15.38;;;3.97;;
35745;SDS011;21870;42.812;74.628;2023-04-24T06:56:55;19.58;;;4.22;;
35745;SDS011;21870;42.812;74.628;2023-04-24T06:59:23;24.00;;;4.35;;
35745;SDS011;21870;42.812;74.628;2023-04-24T07:01:49;18.70;;;4.32;;
35745;SDS011;21870;42.812;74.628;2023-04-24T07:04:16;14.95;;;3.53;;
35745;SDS011;21870;42.812;74.628;2023-04-24T07:06:43;5.93;;;3.40;;
35745;SDS011;21870;42.812;74.628;2023-04-24T07:09:12;32.60;;;5.78;;
35745;SDS011;21870;42.812;74.628;2023-04-24T07:11:42;19.10;;;4.05;;
35745;SDS011;21870;42.812;74.628;2023-04-24T07:14:09;29.95;;;5.25;;
35745;SDS011;21870;42.812;74.628;2023-04-24T07:16:36;13.82;;;3.28;;
35745;SDS011;21870;42.812;74.628;2023-04-24T07:19:02;12.35;;;2.63;;
35745;SDS011;21870;42.812;74.628;2023-04-24T07:21:28;33.28;;;5.05;;
35745;SDS011;21870;42.812;74.628;2023-04-24T07:23:56;38.75;;;5.35;;
35745;SDS011;21870;42.812;74.628;2023-04-24T07:26:22;12.77;;;3.10;;
35745;SDS011;21870;42.812;74.628;2023-04-24T07:28:48;10.88;;;2.65;;
35745;SDS011;21870;42.812;74.628;2023-04-24T07:31:15;9.48;;;3.25;;
35745;SDS011;21870;42.812;74.628;2023-04-24T07:33:41;21.08;;;3.60;;
35745;SDS011;21870;42.812;74.628;2023-04-24T07:36:07;33.20;;;5.05;;
35745;SDS011;21870;42.812;74.628;2023-04-24T07:38:33;19.55;;;4.25;;
35745;SDS011;21870;42.812;74.628;2023-04-24T07:40:59;16.85;;;4.50;;
35745;SDS011;21870;42.812;74.628;2023-04-24T07:43:25;12.38;;;3.28;;
35745;SDS011;21870;42.812;74.628;2023-04-24T07:45:51;13.27;;;3.42;;
35745;SDS011;21870;42.812;74.628;2023-04-24T07:48:18;29.67;;;4.63;;
35745;SDS011;21870;42.812;74.628;2023-04-24T07:50:46;9.63;;;2.97;;
35745;SDS011;21870;42.812;74.628;2023-04-24T07:53:12;38.15;;;4.95;;
35745;SDS011;21870;42.812;74.628;2023-04-24T07:55:38;9.57;;;3.40;;
35745;SDS011;21870;42.812;74.628;2023-04-24T07:58:04;14.95;;;3.28;;
35745;SDS011;21870;42.812;74.628;2023-04-24T08:00:30;19.90;;;3.78;;
35745;SDS011;21870;42.812;74.628;2023-04-24T08:02:57;26.40;;;4.40;;
35745;SDS011;21870;42.812;74.628;2023-04-24T08:05:29;33.08;;;5.55;;
35745;SDS011;21870;42.812;74.628;2023-04-24T08:07:55;9.30;;;3.47;;
35745;SDS011;21870;42.812;74.628;2023-04-24T08:10:21;22.67;;;4.85;;
35745;SDS011;21870;42.812;74.628;2023-04-24T08:12:48;17.10;;;3.58;;
35745;SDS011;21870;42.812;74.628;2023-04-24T08:15:14;12.00;;;3.60;;
35745;SDS011;21870;42.812;74.628;2023-04-24T08:17:41;15.20;;;3.67;;
35745;SDS011;21870;42.812;74.628;2023-04-24T08:20:08;23.25;;;3.10;;
35745;SDS011;21870;42.812;74.628;2023-04-24T08:22:41;12.73;;;3.38;;
35745;SDS011;21870;42.812;74.628;2023-04-24T08:25:09;24.83;;;4.05;;
35745;SDS011;21870;42.812;74.628;2023-04-24T08:27:36;18.55;;;4.13;;
35745;SDS011;21870;42.812;74.628;2023-04-24T08:30:03;14.73;;;3.30;;
35745;SDS011;21870;42.812;74.628;2023-04-24T08:32:30;13.23;;;3.80;;
35745;SDS011;21870;42.812;74.628;2023-04-24T08:34:56;13.60;;;3.22;;
35745;SDS011;21870;42.812;74.628;2023-04-24T08:37:23;8.80;;;2.65;;
35745;SDS011;21870;42.812;74.628;2023-04-24T08:39:50;33.45;;;5.35;;
35745;SDS011;21870;42.812;74.628;2023-04-24T08:42:17;12.20;;;3.42;;
35745;SDS011;21870;42.812;74.628;2023-04-24T08:44:44;9.30;;;3.10;;
35745;SDS011;21870;42.812;74.628;2023-04-24T08:47:11;11.60;;;2.97;;
35745;SDS011;21870;42.812;74.628;2023-04-24T08:49:38;6.85;;;3.03;;
35745;SDS011;21870;42.812;74.628;2023-04-24T08:52:04;14.88;;;3.28;;
35745;SDS011;21870;42.812;74.628;2023-04-24T08:54:31;36.28;;;5.82;;
35745;SDS011;21870;42.812;74.628;2023-04-24T08:57:00;12.65;;;2.88;;
35745;SDS011;21870;42.812;74.628;2023-04-24T08:59:29;35.10;;;4.75;;
35745;SDS011;21870;42.812;74.628;2023-04-24T09:01:56;17.33;;;3.15;;
35745;SDS011;21870;42.812;74.628;2023-04-24T09:04:23;20.83;;;4.05;;
35745;SDS011;21870;42.812;74.628;2023-04-24T09:06:56;20.02;;;3.50;;
35745;SDS011;21870;42.812;74.628;2023-04-24T09:09:24;12.00;;;2.83;;
35745;SDS011;21870;42.812;74.628;2023-04-24T09:11:51;18.20;;;3.53;;
35745;SDS011;21870;42.812;74.628;2023-04-24T09:14:20;14.35;;;2.90;;
35745;SDS011;21870;42.812;74.628;2023-04-24T09:16:49;20.23;;;3.75;;
35745;SDS011;21870;42.812;74.628;2023-04-24T09:19:15;10.13;;;3.20;;
35745;SDS011;21870;42.812;74.628;2023-04-24T09:21:41;10.07;;;3.20;;
35745;SDS011;21870;42.812;74.628;2023-04-24T09:24:15;19.17;;;4.60;;
35745;SDS011;21870;42.812;74.628;2023-04-24T09:26:43;14.95;;;3.78;;
35745;SDS011;21870;42.812;74.628;2023-04-24T09:29:14;17.58;;;4.25;;
35745;SDS011;21870;42.812;74.628;2023-04-24T09:31:44;45.85;;;6.78;;
35745;SDS011;21870;42.812;74.628;2023-04-24T09:34:11;42.33;;;7.88;;
35745;SDS011;21870;42.812;74.628;2023-04-24T09:36:38;34.70;;;6.72;;
35745;SDS011;21870;42.812;74.628;2023-04-24T09:39:08;40.15;;;6.78;;
35745;SDS011;21870;42.812;74.628;2023-04-24T09:41:53;22.63;;;5.20;;
35745;SDS011;21870;42.812;74.628;2023-04-24T09:44:23;54.90;;;9.73;;
35745;SDS011;21870;42.812;74.628;2023-04-24T09:46:52;64.05;;;8.07;;
35745;SDS011;21870;42.812;74.628;2023-04-24T09:49:23;34.65;;;7.38;;
35745;SDS011;21870;42.812;74.628;2023-04-24T09:51:50;30.33;;;5.45;;
35745;SDS011;21870;42.812;74.628;2023-04-24T09:54:18;38.58;;;6.75;;
35745;SDS011;21870;42.812;74.628;2023-04-24T09:56:50;30.25;;;5.90;;
35745;SDS011;21870;42.812;74.628;2023-04-24T09:59:17;36.67;;;6.03;;
35745;SDS011;21870;42.812;74.628;2023-04-24T10:01:44;40.42;;;7.43;;
35745;SDS011;21870;42.812;74.628;2023-04-24T10:06:44;42.08;;;9.18;;
35745;SDS011;21870;42.812;74.628;2023-04-24T10:09:10;23.20;;;5.18;;
35745;SDS011;21870;42.812;74.628;2023-04-24T10:11:38;29.25;;;5.88;;
35745;SDS011;21870;42.812;74.628;2023-04-24T10:14:09;30.85;;;6.50;;
35745;SDS011;21870;42.812;74.628;2023-04-24T10:16:40;48.90;;;6.75;;
35745;SDS011;21870;42.812;74.628;2023-04-24T10:19:06;53.50;;;6.80;;
35745;SDS011;21870;42.812;74.628;2023-04-24T10:21:34;23.88;;;5.40;;
35745;SDS011;21870;42.812;74.628;2023-04-24T10:24:04;27.17;;;6.65;;
35745;SDS011;21870;42.812;74.628;2023-04-24T10:26:32;36.63;;;5.85;;
35745;SDS011;21870;42.812;74.628;2023-04-24T10:28:59;58.17;;;6.80;;
35745;SDS011;21870;42.812;74.628;2023-04-24T10:31:27;28.30;;;7.28;;
35745;SDS011;21870;42.812;74.628;2023-04-24T10:33:56;17.73;;;4.43;;
35745;SDS011;21870;42.812;74.628;2023-04-24T10:36:25;17.30;;;5.18;;
35745;SDS011;21870;42.812;74.628;2023-04-24T10:38:57;22.42;;;5.20;;
35745;SDS011;21870;42.812;74.628;2023-04-24T10:41:26;34.35;;;5.72;;
35745;SDS011;21870;42.812;74.628;2023-04-24T10:44:08;17.05;;;3.80;;
35745;SDS011;21870;42.812;74.628;2023-04-24T10:46:36;28.10;;;4.50;;
35745;SDS011;21870;42.812;74.628;2023-04-24T10:49:06;21.77;;;4.15;;
35745;SDS011;21870;42.812;74.628;2023-04-24T10:54:27;18.70;;;4.60;;
35745;SDS011;21870;42.812;74.628;2023-04-24T10:59:46;30.90;;;4.88;;
35745;SDS011;21870;42.812;74.628;2023-04-24T11:02:14;17.85;;;3.83;;
35745;SDS011;21870;42.812;74.628;2023-04-24T11:04:41;15.75;;;4.85;;
35745;SDS011;21870;42.812;74.628;2023-04-24T11:07:11;20.75;;;4.25;;
35745;SDS011;21870;42.812;74.628;2023-04-24T11:09:37;13.65;;;4.05;;
35745;SDS011;21870;42.812;74.628;2023-04-24T11:12:07;23.52;;;4.75;;
35745;SDS011;21870;42.812;74.628;2023-04-24T11:17:32;28.35;;;4.80;;
35745;SDS011;21870;42.812;74.628;2023-04-24T11:20:08;27.38;;;4.00;;
35745;SDS011;21870;42.812;74.628;2023-04-24T11:22:36;36.17;;;5.63;;
35745;SDS011;21870;42.812;74.628;2023-04-24T11:25:05;20.05;;;4.75;;
35745;SDS011;21870;42.812;74.628;2023-04-24T11:27:38;26.83;;;4.85;;
35745;SDS011;21870;42.812;74.628;2023-04-24T11:30:06;16.45;;;4.63;;
35745;SDS011;21870;42.812;74.628;2023-04-24T11:34:59;9.57;;;3.15;;
35745;SDS011;21870;42.812;74.628;2023-04-24T11:37:29;16.92;;;3.25;;
35745;SDS011;21870;42.812;74.628;2023-04-24T11:40:03;10.48;;;2.72;;
35745;SDS011;21870;42.812;74.628;2023-04-24T11:42:35;9.93;;;2.65;;
35745;SDS011;21870;42.812;74.628;2023-04-24T11:45:06;30.95;;;4.38;;
35745;SDS011;21870;42.812;74.628;2023-04-24T11:47:34;16.80;;;3.25;;
35745;SDS011;21870;42.812;74.628;2023-04-24T11:50:00;16.80;;;2.85;;
35745;SDS011;21870;42.812;74.628;2023-04-24T11:52:27;14.45;;;3.03;;
35745;SDS011;21870;42.812;74.628;2023-04-24T11:54:54;13.27;;;3.05;;
35745;SDS011;21870;42.812;74.628;2023-04-24T11:57:21;11.68;;;2.53;;
35745;SDS011;21870;42.812;74.628;2023-04-24T11:59:49;6.30;;;2.33;;
35745;SDS011;21870;42.812;74.628;2023-04-24T12:02:25;5.55;;;2.13;;
35745;SDS011;21870;42.812;74.628;2023-04-24T12:04:55;5.25;;;1.75;;
35745;SDS011;21870;42.812;74.628;2023-04-24T12:07:22;5.53;;;1.98;;
35745;SDS011;21870;42.812;74.628;2023-04-24T12:09:55;5.20;;;1.77;;
35745;SDS011;21870;42.812;74.628;2023-04-24T12:12:27;10.73;;;2.20;;
35745;SDS011;21870;42.812;74.628;2023-04-24T12:14:56;12.13;;;2.15;;
35745;SDS011;21870;42.812;74.628;2023-04-24T12:17:26;13.25;;;2.38;;
35745;SDS011;21870;42.812;74.628;2023-04-24T12:20:03;22.17;;;2.92;;
35745;SDS011;21870;42.812;74.628;2023-04-24T12:22:43;4.28;;;2.20;;
35745;SDS011;21870;42.812;74.628;2023-04-24T12:25:13;4.80;;;2.17;;
35745;SDS011;21870;42.812;74.628;2023-04-24T12:27:43;8.65;;;2.33;;
35745;SDS011;21870;42.812;74.628;2023-04-24T12:30:20;10.63;;;2.17;;
35745;SDS011;21870;42.812;74.628;2023-04-24T12:32:47;5.78;;;2.15;;
35745;SDS011;21870;42.812;74.628;2023-04-24T12:35:21;14.32;;;2.75;;
35745;SDS011;21870;42.812;74.628;2023-04-24T12:37:48;11.23;;;2.50;;
35745;SDS011;21870;42.812;74.628;2023-04-24T12:40:15;9.10;;;1.88;;
35745;SDS011;21870;42.812;74.628;2023-04-24T12:42:45;7.90;;;2.38;;
35745;SDS011;21870;42.812;74.628;2023-04-24T12:45:16;12.10;;;3.03;;
35745;SDS011;21870;42.812;74.628;2023-04-24T12:47:43;48.35;;;5.30;;
35745;SDS011;21870;42.812;74.628;2023-04-24T12:50:11;15.63;;;2.40;;
35745;SDS011;21870;42.812;74.628;2023-04-24T12:52:39;5.75;;;1.80;;
35745;SDS011;21870;42.812;74.628;2023-04-24T12:55:06;5.85;;;1.85;;
35745;SDS011;21870;42.812;74.628;2023-04-24T12:57:36;10.77;;;2.20;;
35745;SDS011;21870;42.812;74.628;2023-04-24T13:00:04;2.65;;;1.80;;
35745;SDS011;21870;42.812;74.628;2023-04-24T13:02:32;5.25;;;1.80;;
35745;SDS011;21870;42.812;74.628;2023-04-24T13:04:59;3.95;;;1.60;;
35745;SDS011;21870;42.812;74.628;2023-04-24T13:07:25;2.85;;;1.60;;
35745;SDS011;21870;42.812;74.628;2023-04-24T13:09:52;2.65;;;1.70;;
35745;SDS011;21870;42.812;74.628;2023-04-24T13:12:19;3.08;;;1.85;;
35745;SDS011;21870;42.812;74.628;2023-04-24T13:14:46;3.47;;;1.50;;
35745;SDS011;21870;42.812;74.628;2023-04-24T13:17:12;4.63;;;2.08;;
35745;SDS011;21870;42.812;74.628;2023-04-24T13:19:40;1.92;;;1.60;;
35745;SDS011;21870;42.812;74.628;2023-04-24T13:22:08;7.50;;;1.98;;
35745;SDS011;21870;42.812;74.628;2023-04-24T13:24:35;2.22;;;1.70;;
35745;SDS011;21870;42.812;74.628;2023-04-24T13:27:02;2.72;;;2.08;;
35745;SDS011;21870;42.812;74.628;2023-04-24T13:29:28;2.67;;;2.10;;
35745;SDS011;21870;42.812;74.628;2023-04-24T13:31:55;6.32;;;2.58;;
35745;SDS011;21870;42.812;74.628;2023-04-24T13:34:22;5.68;;;2.47;;
35745;SDS011;21870;42.812;74.628;2023-04-24T13:36:49;8.10;;;2.75;;
35745;SDS011;21870;42.812;74.628;2023-04-24T13:39:19;6.22;;;2.28;;
35745;SDS011;21870;42.812;74.628;2023-04-24T13:41:46;6.90;;;3.13;;
35745;SDS011;21870;42.812;74.628;2023-04-24T13:44:13;7.63;;;2.47;;
35745;SDS011;21870;42.812;74.628;2023-04-24T13:46:41;3.45;;;2.40;;
35745;SDS011;21870;42.812;74.628;2023-04-24T13:49:09;3.58;;;2.15;;
35745;SDS011;21870;42.812;74.628;2023-04-24T13:51:35;6.35;;;2.33;;
35745;SDS011;21870;42.812;74.628;2023-04-24T13:54:02;3.63;;;2.38;;
35745;SDS011;21870;42.812;74.628;2023-04-24T13:56:28;4.03;;;2.67;;
35745;SDS011;21870;42.812;74.628;2023-04-24T13:58:54;4.75;;;2.63;;
35745;SDS011;21870;42.812;74.628;2023-04-24T14:01:21;7.38;;;2.40;;
35745;SDS011;21870;42.812;74.628;2023-04-24T14:03:53;3.75;;;2.95;;
35745;SDS011;21870;42.812;74.628;2023-04-24T14:06:20;3.47;;;2.17;;
35745;SDS011;21870;42.812;74.628;2023-04-24T14:08:47;2.63;;;2.17;;
35745;SDS011;21870;42.812;74.628;2023-04-24T14:11:14;2.67;;;2.08;;
35745;SDS011;21870;42.812;74.628;2023-04-24T14:13:40;4.50;;;2.35;;
35745;SDS011;21870;42.812;74.628;2023-04-24T14:16:07;5.70;;;2.65;;
35745;SDS011;21870;42.812;74.628;2023-04-24T14:18:34;3.88;;;2.33;;
35745;SDS011;21870;42.812;74.628;2023-04-24T14:21:01;2.65;;;2.13;;
35745;SDS011;21870;42.812;74.628;2023-04-24T14:23:28;3.25;;;2.45;;
35745;SDS011;21870;42.812;74.628;2023-04-24T14:25:54;4.25;;;2.40;;
35745;SDS011;21870;42.812;74.628;2023-04-24T14:28:21;4.70;;;2.65;;
35745;SDS011;21870;42.812;74.628;2023-04-24T14:30:47;3.03;;;2.35;;
35745;SDS011;21870;42.812;74.628;2023-04-24T14:33:13;3.05;;;2.33;;
35745;SDS011;21870;42.812;74.628;2023-04-24T14:35:40;2.88;;;2.30;;
35745;SDS011;21870;42.812;74.628;2023-04-24T14:38:09;4.13;;;2.33;;
35745;SDS011;21870;42.812;74.628;2023-04-24T14:40:36;3.28;;;2.38;;
35745;SDS011;21870;42.812;74.628;2023-04-24T14:43:03;4.80;;;1.88;;